createdAt,value
2018-08-04T00:00:30.170Z,56.43
2018-08-04T00:02:59.288Z,56.54
2018-08-04T00:05:28.165Z,55.81
2018-08-04T00:07:57.014Z,57.32
2018-08-04T00:10:25.990Z,56.73
2018-08-04T00:12:55.157Z,56.76
2018-08-04T00:15:24.053Z,58.41
2018-08-04T00:17:52.911Z,59.31
2018-08-04T00:20:21.816Z,60.61
2018-08-04T00:22:50.802Z,58.36
2018-08-04T00:25:19.764Z,58.94
2018-08-04T00:27:48.785Z,59.83
2018-08-04T00:30:17.702Z,60.29
2018-08-04T00:32:46.697Z,59.87
2018-08-04T00:35:15.776Z,60.09
2018-08-04T00:37:44.756Z,60.56
2018-08-04T00:40:13.984Z,59.48
2018-08-04T00:42:43.360Z,60.77
2018-08-04T00:45:12.280Z,59.66
2018-08-04T00:47:41.357Z,60.25
2018-08-04T00:50:10.963Z,60.81
2018-08-04T00:52:39.879Z,61.27
2018-08-04T00:55:09.380Z,60.58
2018-08-04T00:57:38.381Z,59.47
2018-08-04T01:00:09.269Z,59.98
2018-08-04T01:02:38.257Z,60.48
2018-08-04T01:05:07.250Z,60.56
2018-08-04T01:07:36.159Z,59.99
2018-08-04T01:10:05.801Z,61.61
2018-08-04T01:12:34.826Z,61.53
2018-08-04T01:15:03.906Z,61.64
2018-08-04T01:17:33.056Z,61.00
2018-08-04T01:20:03.739Z,61.61
2018-08-04T01:22:33.652Z,61.39
2018-08-04T01:25:02.790Z,60.76
2018-08-04T01:27:33.047Z,61.04
2018-08-04T01:30:02.146Z,61.61
2018-08-04T01:32:31.659Z,62.29
2018-08-04T01:35:00.594Z,62.58
2018-08-04T01:37:29.640Z,63.61
2018-08-04T01:39:58.826Z,63.99
2018-08-04T01:42:27.738Z,63.88
2018-08-04T01:44:56.734Z,63.33
2018-08-04T01:47:25.589Z,64.14
2018-08-04T01:49:54.578Z,64.89
2018-08-04T01:52:23.622Z,63.94
2018-08-04T01:54:52.661Z,63.22
2018-08-04T01:57:21.646Z,64.78
2018-08-04T01:59:50.808Z,64.38
2018-08-04T02:02:19.861Z,65.15
2018-08-04T02:04:48.859Z,65.50
2018-08-04T02:07:17.829Z,65.24
2018-08-04T02:09:46.785Z,65.66
2018-08-04T02:37:53.632Z,68.87
2018-08-04T02:40:22.639Z,69.08
2018-08-04T02:42:51.579Z,69.06
2018-08-04T02:45:20.583Z,67.61
2018-08-04T02:47:49.494Z,69.49
2018-08-04T02:50:18.332Z,67.95
2018-08-04T02:52:47.366Z,67.84
2018-08-04T02:55:16.239Z,67.98
2018-08-04T02:57:46.347Z,68.18
2018-08-04T03:00:15.415Z,67.89
2018-08-04T03:02:44.398Z,68.34
2018-08-04T03:05:13.593Z,67.53
2018-08-04T03:07:42.674Z,68.30
2018-08-04T03:10:11.484Z,69.35
2018-08-04T03:12:40.402Z,68.37
2018-08-04T03:15:09.701Z,68.86
2018-08-04T03:17:39.521Z,69.40
2018-08-04T03:20:09.405Z,68.50
2018-08-04T03:22:38.973Z,68.57
2018-08-04T03:25:08.089Z,67.63
2018-08-04T03:27:37.616Z,68.50
2018-08-04T03:30:06.574Z,67.48
2018-08-04T03:32:35.557Z,68.15
2018-08-04T03:35:04.712Z,69.52
2018-08-04T03:37:33.748Z,69.89
2018-08-04T03:40:06.345Z,68.97
2018-08-04T03:42:35.386Z,70.06
2018-08-04T03:45:04.364Z,69.56
2018-08-04T03:47:34.677Z,69.96
2018-08-04T03:50:03.894Z,70.61
2018-08-04T03:52:32.964Z,70.90
2018-08-04T03:55:02.072Z,70.96
2018-08-04T03:57:32.472Z,70.48
2018-08-04T04:00:01.459Z,69.87
2018-08-04T04:02:31.135Z,69.85
2018-08-04T04:05:00.085Z,69.14
2018-08-04T04:07:29.114Z,69.41
2018-08-04T04:09:58.433Z,68.85
2018-08-04T04:12:28.386Z,68.22
2018-08-04T04:14:57.703Z,68.50
2018-08-04T04:17:32.520Z,69.65
2018-08-04T04:20:01.474Z,68.80
2018-08-04T04:22:30.668Z,69.82
2018-08-04T04:24:59.570Z,69.98
2018-08-04T04:27:28.618Z,69.35
2018-08-04T04:29:57.459Z,68.99
2018-08-04T04:32:26.520Z,69.36
2018-08-04T04:34:56.127Z,69.76
2018-08-04T04:37:25.859Z,68.79
2018-08-04T04:39:54.951Z,69.32
2018-08-04T04:42:23.781Z,68.79
2018-08-04T04:44:53.861Z,69.96
2018-08-04T04:47:22.841Z,69.12
2018-08-04T04:49:52.834Z,69.13
2018-08-04T04:52:27.535Z,69.28
2018-08-04T04:54:56.682Z,70.56
2018-08-04T04:57:26.209Z,70.26
2018-08-04T04:59:55.285Z,69.77
2018-08-04T05:02:24.959Z,69.38
2018-08-04T05:04:55.468Z,70.19
2018-08-04T05:07:25.553Z,70.98
2018-08-04T05:09:54.412Z,70.51
2018-08-04T05:12:23.384Z,70.06
2018-08-04T05:14:52.482Z,70.20
2018-08-04T05:17:21.651Z,70.89
2018-08-04T05:19:50.684Z,70.70
2018-08-04T05:22:20.718Z,71.36
2018-08-04T05:24:49.647Z,71.16
2018-08-04T05:27:18.628Z,72.17
2018-08-04T05:29:47.508Z,70.82
2018-08-04T05:32:16.500Z,70.16
2018-08-04T05:34:45.642Z,69.80
2018-08-04T05:37:14.755Z,70.02
2018-08-04T05:39:43.850Z,71.17
2018-08-04T05:42:12.956Z,71.51
2018-08-04T05:44:42.100Z,70.29
2018-08-04T05:47:11.985Z,71.01
2018-08-04T05:49:40.931Z,70.10
2018-08-04T05:52:10.046Z,71.93
2018-08-04T05:54:39.200Z,72.16
2018-08-04T05:57:08.131Z,71.46
2018-08-04T05:59:37.175Z,71.22
2018-08-04T06:02:07.408Z,72.66
2018-08-04T06:04:36.515Z,72.43
2018-08-04T06:07:05.554Z,72.69
2018-08-04T06:09:36.803Z,72.24
2018-08-04T06:12:17.219Z,72.08
2018-08-04T06:14:47.051Z,72.23
2018-08-04T06:17:18.831Z,71.94
2018-08-04T06:19:48.224Z,73.21
2018-08-04T06:22:21.639Z,71.77
2018-08-04T06:24:53.168Z,72.08
2018-08-04T06:27:23.762Z,71.10
2018-08-04T06:29:55.363Z,70.01
2018-08-04T06:32:29.002Z,70.43
2018-08-04T06:35:00.221Z,71.28
2018-08-04T06:37:30.613Z,71.67
2018-08-04T06:40:01.256Z,71.84
2018-08-04T06:42:30.969Z,70.79
2018-08-04T06:45:01.785Z,70.76
2018-08-04T06:47:30.816Z,72.16
2018-08-04T06:50:00.429Z,71.03
2018-08-04T06:52:31.293Z,71.20
2018-08-04T06:55:00.231Z,71.88
2018-08-04T06:57:29.059Z,71.33
2018-08-04T06:59:57.981Z,72.26
2018-08-04T07:02:27.036Z,71.95
2018-08-04T07:04:56.468Z,72.48
2018-08-04T07:07:25.397Z,70.83
2018-08-04T07:09:54.286Z,71.79
2018-08-04T07:12:24.859Z,71.49
2018-08-04T07:14:53.873Z,71.73
2018-08-04T07:17:22.706Z,71.77
2018-08-04T07:19:51.816Z,71.81
2018-08-04T07:22:20.748Z,71.53
2018-08-04T07:24:49.577Z,72.74
2018-08-04T07:27:19.757Z,71.74
2018-08-04T07:29:48.656Z,72.99
2018-08-04T07:32:17.501Z,71.60
2018-08-04T07:34:46.613Z,72.52
2018-08-04T07:37:15.633Z,71.87
2018-08-04T07:39:44.466Z,72.58
2018-08-04T07:42:13.382Z,71.98
2018-08-04T07:44:42.249Z,71.93
2018-08-04T07:47:12.314Z,71.06
2018-08-04T07:49:41.316Z,72.42
2018-08-04T07:52:10.189Z,72.27
2018-08-04T07:54:42.513Z,71.49
2018-08-04T07:57:11.635Z,71.82
2018-08-04T07:59:40.528Z,71.22
2018-08-04T08:02:09.462Z,70.76
2018-08-04T08:04:38.297Z,70.70
2018-08-04T08:07:07.237Z,71.40
2018-08-04T08:09:36.091Z,70.61
2018-08-04T08:12:05.034Z,71.25
2018-08-04T08:14:33.937Z,71.23
2018-08-04T08:17:02.852Z,71.02
2018-08-04T08:19:31.757Z,70.13
2018-08-04T08:22:00.614Z,70.11
2018-08-04T08:24:31.569Z,69.90
2018-08-04T08:27:00.542Z,70.24
2018-08-04T08:29:30.980Z,69.67
2018-08-04T08:32:00.068Z,69.19
2018-08-04T08:34:29.006Z,69.04
2018-08-04T08:36:59.152Z,67.84
2018-08-04T08:39:28.080Z,68.39
2018-08-04T08:41:57.361Z,68.05
2018-08-04T08:44:27.727Z,68.15
2018-08-04T08:46:56.740Z,66.81
2018-08-04T08:49:25.597Z,66.93
2018-08-04T08:51:55.241Z,66.86
2018-08-04T08:54:24.766Z,66.83
2018-08-04T08:56:53.607Z,66.50
2018-08-04T08:59:22.492Z,65.97
2018-08-04T09:01:51.446Z,65.84
2018-08-04T09:04:20.455Z,65.18
2018-08-04T09:06:49.488Z,65.82
2018-08-04T09:09:18.465Z,65.39
2018-08-04T09:11:47.352Z,64.07
2018-08-04T09:14:16.254Z,63.79
2018-08-04T09:16:45.345Z,63.25
2018-08-04T09:19:14.288Z,62.98
2018-08-04T09:21:43.228Z,61.85
2018-08-04T09:24:12.115Z,62.09
2018-08-04T09:26:41.160Z,63.10
2018-08-04T09:29:10.149Z,62.78
2018-08-04T09:31:39.156Z,61.93
2018-08-04T09:34:08.044Z,60.60
2018-08-04T09:36:37.604Z,61.60
2018-08-04T09:39:09.101Z,61.62
2018-08-04T09:41:38.286Z,60.94
2018-08-04T09:44:08.701Z,61.28
2018-08-04T09:46:38.148Z,60.94
2018-08-04T09:49:08.182Z,61.43
2018-08-04T09:51:37.133Z,60.70
2018-08-04T09:54:06.077Z,60.18
2018-08-04T09:56:35.047Z,60.14
2018-08-04T09:59:04.491Z,60.62
2018-08-04T10:01:38.530Z,59.67
2018-08-04T10:04:09.339Z,60.10
2018-08-04T10:06:38.362Z,58.61
2018-08-04T10:09:10.334Z,57.55
2018-08-04T10:11:39.377Z,57.65
2018-08-04T10:14:08.301Z,57.77
2018-08-04T10:16:37.274Z,56.97
2018-08-04T10:19:06.309Z,56.73
2018-08-04T10:21:35.320Z,57.06
2018-08-04T10:24:04.835Z,56.83
2018-08-04T10:26:33.767Z,56.69
2018-08-04T10:29:02.662Z,56.94
2018-08-04T10:31:31.685Z,57.56
2018-08-04T10:34:00.725Z,56.63
2018-08-04T10:36:29.590Z,54.50
2018-08-04T10:38:58.436Z,56.53
2018-08-04T10:41:27.437Z,56.33
2018-08-04T10:43:56.268Z,55.70
2018-08-04T10:46:25.104Z,56.95
2018-08-04T10:48:54.123Z,55.70
2018-08-04T10:51:22.955Z,56.07
2018-08-04T10:53:51.802Z,56.85
2018-08-04T10:56:20.818Z,56.95
2018-08-04T10:58:49.677Z,55.17
2018-08-04T11:01:18.538Z,55.41
2018-08-04T11:03:47.541Z,55.23
2018-08-04T11:06:16.372Z,55.43
2018-08-04T11:08:45.238Z,57.05
2018-08-04T11:11:14.195Z,56.00
2018-08-04T11:13:43.103Z,54.66
2018-08-04T11:16:12.164Z,54.74
2018-08-04T11:18:40.996Z,54.48
2018-08-04T11:21:09.979Z,54.04
2018-08-04T11:23:39.537Z,54.96
2018-08-04T11:26:08.510Z,54.56
2018-08-04T11:28:37.433Z,55.43
2018-08-04T11:31:06.725Z,55.39
2018-08-04T11:33:35.657Z,55.85
2018-08-04T11:36:04.612Z,54.92
2018-08-04T11:38:33.522Z,55.14
2018-08-04T11:41:02.548Z,53.68
2018-08-04T11:43:31.428Z,52.13
2018-08-04T11:46:00.413Z,53.49
2018-08-04T11:48:29.522Z,53.63
2018-08-04T11:50:58.532Z,54.07
2018-08-04T11:53:27.383Z,53.02
2018-08-04T11:55:56.353Z,54.14
2018-08-04T11:58:25.248Z,55.24
2018-08-04T12:00:54.034Z,54.57
2018-08-04T12:03:23.064Z,54.44
2018-08-04T12:05:52.038Z,54.96
2018-08-04T12:08:21.015Z,53.80
2018-08-04T12:10:49.928Z,53.81
2018-08-04T12:13:18.873Z,54.62
2018-08-04T12:15:47.791Z,54.09
2018-08-04T12:18:16.697Z,54.40
2018-08-04T12:20:45.595Z,53.38
2018-08-04T12:23:15.193Z,54.32
2018-08-04T12:25:44.156Z,54.05
2018-08-04T12:28:13.156Z,54.43
2018-08-04T12:30:42.005Z,53.60
2018-08-04T12:33:10.987Z,53.13
2018-08-04T12:35:39.903Z,52.32
2018-08-04T12:38:08.871Z,53.12
2018-08-04T12:40:37.816Z,52.06
2018-08-04T12:43:06.816Z,53.47
2018-08-04T12:45:35.780Z,53.27
2018-08-04T12:48:04.729Z,52.64
2018-08-04T12:50:33.636Z,52.04
2018-08-04T12:53:02.772Z,52.08
2018-08-04T12:55:31.680Z,52.02
2018-08-04T12:58:00.590Z,50.99
2018-08-04T13:00:29.433Z,51.39
2018-08-04T13:02:58.468Z,51.01
2018-08-04T13:05:27.471Z,50.83
2018-08-04T13:07:57.065Z,50.62
2018-08-04T13:10:26.017Z,51.00
2018-08-04T13:12:54.966Z,51.41
2018-08-04T13:15:23.817Z,51.31
2018-08-04T13:17:53.007Z,51.81
2018-08-04T13:20:21.931Z,50.08
2018-08-04T13:22:50.913Z,50.92
2018-08-04T13:25:19.814Z,50.90
2018-08-04T13:27:48.827Z,50.41
2018-08-04T13:30:17.893Z,50.57
2018-08-04T13:32:47.642Z,50.35
2018-08-04T13:35:16.933Z,51.52
2018-08-04T13:37:45.762Z,51.21
2018-08-04T13:40:16.803Z,50.73
2018-08-04T13:42:47.133Z,50.17
2018-08-04T13:45:16.145Z,49.05
2018-08-04T13:47:45.082Z,49.66
2018-08-04T13:50:13.957Z,49.46
2018-08-04T13:52:43.212Z,49.58
2018-08-04T13:55:12.133Z,47.44
2018-08-04T13:57:40.982Z,47.76
2018-08-04T14:00:09.947Z,47.40
2018-08-04T14:02:38.987Z,47.91
2018-08-04T14:05:08.004Z,49.11
2018-08-04T14:07:36.985Z,48.95
2018-08-04T14:10:06.168Z,48.73
2018-08-04T14:12:35.143Z,48.84
2018-08-04T14:15:04.501Z,48.02
2018-08-04T14:17:33.474Z,47.50
2018-08-04T14:20:02.314Z,46.85
2018-08-04T14:22:31.372Z,47.29
2018-08-04T14:25:00.348Z,46.53
2018-08-04T14:27:29.237Z,47.11
2018-08-04T14:29:58.298Z,47.94
2018-08-04T14:32:27.208Z,47.46
2018-08-04T14:34:56.199Z,48.31
2018-08-04T14:37:25.302Z,48.24
2018-08-04T14:39:54.494Z,48.74
2018-08-04T14:42:23.476Z,49.22
2018-08-04T14:44:52.374Z,49.21
2018-08-04T14:47:21.230Z,49.12
2018-08-04T14:49:50.144Z,49.23
2018-08-04T14:52:19.027Z,47.72
2018-08-04T14:54:47.936Z,48.51
2018-08-04T14:57:17.072Z,48.14
2018-08-04T14:59:45.964Z,47.35
2018-08-04T15:02:15.443Z,47.60
2018-08-04T15:04:44.544Z,48.20
2018-08-04T15:07:13.351Z,47.85
2018-08-04T15:09:42.196Z,48.34
2018-08-04T15:12:11.145Z,48.27
2018-08-04T15:14:40.004Z,47.83
2018-08-04T15:17:08.842Z,48.62
2018-08-04T15:19:37.866Z,47.91
2018-08-04T15:22:06.766Z,47.86
2018-08-04T15:24:35.622Z,48.20
2018-08-04T15:27:04.631Z,48.61
2018-08-04T15:29:33.594Z,48.58
2018-08-04T15:32:02.594Z,47.58
2018-08-04T15:34:31.489Z,46.91
2018-08-04T15:37:00.462Z,46.41
2018-08-04T15:39:29.409Z,46.39
2018-08-04T15:41:58.264Z,47.69
2018-08-04T15:44:27.264Z,45.90
2018-08-04T15:46:56.307Z,46.97
2018-08-04T15:49:25.194Z,46.36
2018-08-04T15:51:54.056Z,46.54
2018-08-04T15:54:23.057Z,47.17
2018-08-04T15:56:51.931Z,46.65
2018-08-04T15:59:20.850Z,47.50
2018-08-04T16:01:49.764Z,48.31
2018-08-04T16:04:19.606Z,48.54
2018-08-04T16:06:49.155Z,47.98
2018-08-04T16:09:17.999Z,47.23
2018-08-04T16:11:46.884Z,47.78
2018-08-04T16:14:15.877Z,47.54
2018-08-04T16:16:44.772Z,48.09
2018-08-04T16:19:13.693Z,47.22
2018-08-04T16:21:42.590Z,46.99
2018-08-04T16:24:11.679Z,47.87
2018-08-04T16:26:40.699Z,47.73
2018-08-04T16:29:09.524Z,47.42
2018-08-04T16:31:38.472Z,48.37
2018-08-04T16:34:07.431Z,48.36
2018-08-04T16:36:37.146Z,47.67
2018-08-04T16:39:08.542Z,47.57
2018-08-04T16:41:37.696Z,47.60
2018-08-04T16:44:06.607Z,48.46
2018-08-04T16:46:35.569Z,47.48
2018-08-04T16:49:04.511Z,49.13
2018-08-04T16:51:33.371Z,48.19
2018-08-04T16:54:02.550Z,47.94
2018-08-04T16:56:31.383Z,49.44
2018-08-04T16:59:00.218Z,48.86
2018-08-04T17:01:29.149Z,48.58
2018-08-04T17:03:59.193Z,48.74
2018-08-04T17:06:28.091Z,48.98
2018-08-04T17:08:57.035Z,48.69
2018-08-04T17:11:25.961Z,48.87
2018-08-04T17:13:54.924Z,49.33
2018-08-04T17:16:23.853Z,48.56
2018-08-04T17:18:52.868Z,49.47
2018-08-04T17:21:21.850Z,50.05
2018-08-04T17:23:50.861Z,51.14
2018-08-04T17:26:19.726Z,51.69
2018-08-04T17:28:48.633Z,51.23
2018-08-04T17:31:17.576Z,52.31
2018-08-04T17:33:46.559Z,52.83
2018-08-04T17:36:15.461Z,51.95
2018-08-04T17:38:44.450Z,52.05
2018-08-04T17:41:13.471Z,52.02
2018-08-04T17:43:42.319Z,52.88
2018-08-04T17:46:11.356Z,52.08
2018-08-04T17:48:40.223Z,53.08
2018-08-04T17:51:09.186Z,52.78
2018-08-04T17:53:38.848Z,52.65
2018-08-04T17:56:07.786Z,52.68
2018-08-04T17:58:36.694Z,52.42
2018-08-04T18:01:05.693Z,53.15
2018-08-04T18:03:34.549Z,53.30
2018-08-04T18:06:03.455Z,54.01
2018-08-04T18:08:32.367Z,53.42
2018-08-04T18:11:01.218Z,54.17
2018-08-04T18:13:30.237Z,55.25
2018-08-04T18:15:59.200Z,54.98
2018-08-04T18:18:28.090Z,54.75
2018-08-04T18:20:57.087Z,55.60
2018-08-04T18:23:25.906Z,55.00
2018-08-04T18:25:54.909Z,54.55
2018-08-04T18:28:23.820Z,55.40
2018-08-04T18:30:52.714Z,55.05
2018-08-04T18:33:21.571Z,55.64
2018-08-04T18:35:50.665Z,56.48
2018-08-04T18:38:19.605Z,55.44
2018-08-04T18:40:48.455Z,55.66
2018-08-04T18:43:17.476Z,55.99
2018-08-04T18:45:47.424Z,56.15
2018-08-04T18:48:17.012Z,57.29
2018-08-04T18:50:46.048Z,56.14
2018-08-04T18:53:15.009Z,56.37
2018-08-04T18:55:44.000Z,56.50
2018-08-04T18:58:13.093Z,56.41
2018-08-04T19:00:42.041Z,56.91
2018-08-04T19:03:11.055Z,55.84
2018-08-04T19:05:39.926Z,55.26
2018-08-04T19:08:09.921Z,55.21
2018-08-04T19:10:39.095Z,55.78
2018-08-04T19:13:09.240Z,56.10
2018-08-04T19:15:38.373Z,56.16
2018-08-04T19:18:07.326Z,56.41
2018-08-04T19:20:36.248Z,55.89
2018-08-04T19:23:05.977Z,56.29
2018-08-04T19:25:35.816Z,56.48
2018-08-04T19:28:04.766Z,56.67
2018-08-04T19:30:34.184Z,55.86
2018-08-04T19:33:03.044Z,55.63
2018-08-04T19:35:32.114Z,56.69
2018-08-04T19:38:01.107Z,57.07
2018-08-04T19:40:29.935Z,56.96
2018-08-04T19:42:59.057Z,57.14
2018-08-04T19:45:28.657Z,56.73
2018-08-04T19:47:58.604Z,57.17
2018-08-04T19:50:27.780Z,56.15
2018-08-04T19:52:56.757Z,57.14
2018-08-04T19:55:25.627Z,57.73
2018-08-04T19:57:54.736Z,57.77
2018-08-04T20:00:23.613Z,57.12
2018-08-04T20:02:52.597Z,58.18
2018-08-04T20:05:21.498Z,57.90
2018-08-04T20:07:50.369Z,57.47
2018-08-04T20:10:19.420Z,58.21
2018-08-04T20:12:48.322Z,58.40
2018-08-04T20:15:17.812Z,59.44
2018-08-04T20:17:46.878Z,58.82
2018-08-04T20:20:15.764Z,57.69
2018-08-04T20:22:47.435Z,58.66
2018-08-04T20:25:16.495Z,57.90
2018-08-04T20:27:45.365Z,57.72
2018-08-04T20:30:14.198Z,58.94
2018-08-04T20:32:44.259Z,58.45
2018-08-04T20:35:13.231Z,58.64
2018-08-04T20:37:43.548Z,58.73
2018-08-04T20:40:13.727Z,58.01
2018-08-04T20:42:47.118Z,58.66
2018-08-04T20:45:17.266Z,58.13
2018-08-04T20:47:46.280Z,58.98
2018-08-04T20:50:15.180Z,58.96
2018-08-04T20:52:45.318Z,58.63
2018-08-04T20:55:16.863Z,58.41
2018-08-04T20:57:45.805Z,57.67
2018-08-04T21:00:15.080Z,58.33
2018-08-04T21:02:44.067Z,58.93
2018-08-04T21:05:13.031Z,60.15
2018-08-04T21:07:41.985Z,60.66
2018-08-04T21:10:10.916Z,62.11
2018-08-04T21:12:39.751Z,61.39
2018-08-04T21:15:08.802Z,61.20
2018-08-04T21:17:37.669Z,61.96
2018-08-04T21:20:06.546Z,62.36
2018-08-04T21:22:35.482Z,63.13
2018-08-04T21:25:06.621Z,63.03
2018-08-04T21:27:36.289Z,61.69
2018-08-04T21:30:06.666Z,60.97
2018-08-04T21:32:35.637Z,60.82
2018-08-04T21:35:04.614Z,61.39
2018-08-04T21:37:33.705Z,61.00
2018-08-04T21:40:02.631Z,62.74
2018-08-04T21:42:31.587Z,62.43
2018-08-04T21:45:00.415Z,62.70
2018-08-04T21:47:30.380Z,62.34
2018-08-04T21:50:00.011Z,62.32
2018-08-04T21:52:28.899Z,62.52
2018-08-04T21:54:57.770Z,63.30
2018-08-04T21:57:26.665Z,63.52
2018-08-04T21:59:55.678Z,64.15
2018-08-04T22:02:25.383Z,63.82
2018-08-04T22:05:01.022Z,63.39
2018-08-04T22:07:54.461Z,63.89
2018-08-04T22:10:32.153Z,63.40
2018-08-04T22:13:01.224Z,64.97
2018-08-04T22:15:30.093Z,64.82
2018-08-04T22:17:58.989Z,63.74
2018-08-04T22:20:30.142Z,63.75
2018-08-04T22:22:59.325Z,64.64
2018-08-04T22:25:30.992Z,64.80
2018-08-04T22:28:05.697Z,64.36
2018-08-04T22:30:37.095Z,63.67
2018-08-04T22:33:08.003Z,64.25
2018-08-04T22:35:38.029Z,63.90
2018-08-04T22:38:06.910Z,64.47
2018-08-04T22:40:41.331Z,63.98
2018-08-04T22:43:12.404Z,64.97
2018-08-04T22:46:11.719Z,64.39
2018-08-04T22:48:46.775Z,65.37
2018-08-04T22:51:28.351Z,65.86
2018-08-04T22:53:57.539Z,66.79
2018-08-04T22:56:27.078Z,66.09
2018-08-04T22:58:56.056Z,66.24
2018-08-04T23:01:25.093Z,66.49
2018-08-04T23:03:54.616Z,67.69
2018-08-04T23:06:23.455Z,66.77
2018-08-04T23:08:52.405Z,69.10
2018-08-04T23:11:21.652Z,67.56
2018-08-04T23:13:51.999Z,68.28
2018-08-04T23:16:20.922Z,67.66
2018-08-04T23:18:50.999Z,68.77
2018-08-04T23:21:20.852Z,68.70
2018-08-04T23:23:49.802Z,69.47
2018-08-04T23:26:20.777Z,69.31
2018-08-04T23:28:50.800Z,70.57
2018-08-04T23:31:20.424Z,70.71
2018-08-04T23:33:51.419Z,69.40
2018-08-04T23:36:20.904Z,71.03
2018-08-04T23:38:50.724Z,70.43
2018-08-04T23:41:25.176Z,70.33
2018-08-04T23:43:55.397Z,70.06
2018-08-04T23:46:25.606Z,71.68
2018-08-04T23:48:55.569Z,71.29
2018-08-04T23:51:26.645Z,71.95
2018-08-04T23:53:55.624Z,70.92
2018-08-04T23:56:25.796Z,71.17
2018-08-04T23:58:55.763Z,70.86
